PWSweather.com
Personal Weather Stations
Station Observations
WD4JKH
Forsyth, GA 31029

Forsyth, GA 31029

Lat: 33.033225, Lon: -83.927995

Elevation: 709

Station Type: Davis Vantage VUE

High Low Average
Temperature 66.7°F19.3°C 48.5°F9.2°C 57.2°F14.0°C
Dew Point 48.2°F9.0°C 35.9°F2.2°C 40.4°F4.7°C
Winds 12.4 mph 20.0 kmh 1.0 mph 1.6 kmh 4.0 mph WNW6.4 kmh WNW
Wind Gusts 23.0 mph37.0 kmh 4.0 mph6.4 kmh 13.0 mph20.9 kmh
Humidity 78% 35% 56%
Pressure 30.17 in1021.7 mb 29.84 in1010.5 mb -
Precipitation 0.00 in0.0 mm - -
Hour Temp Dew Point Humidity Winds Wind Gusts Pressure Precip Precip Rate Daily Precip Total
12:00 AM 56.0°F13.3°C 47.8°F8.8°C 74% 8.5 mph W13.7 kmh W 18.0 mph29.0 kmh 29.84 in1010.5 mb 0.00 in0.0 mm 0.00 in0.0 mm 0.00 in0.0 mm
12:05 AM 56.0°F13.3°C 47.9°F8.8°C 74% 6.9 mph WNW11.1 kmh WNW 18.0 mph29.0 kmh 29.84 in1010.5 mb 0.00 in0.0 mm 0.00 in0.0 mm 0.00 in0.0 mm
12:10 AM 55.9°F13.3°C 48.2°F9.0°C 75% 3.2 mph WNW5.1 kmh WNW 18.0 mph29.0 kmh 29.84 in1010.5 mb 0.00 in0.0 mm 0.00 in0.0 mm 0.00 in0.0 mm
12:15 AM 55.8°F13.2°C 47.7°F8.7°C 74% 5.4 mph W8.7 kmh W 18.0 mph29.0 kmh 29.84 in1010.5 mb 0.00 in0.0 mm 0.00 in0.0 mm 0.00 in0.0 mm
12:20 AM 55.8°F13.2°C 48.1°F8.9°C 75% 4.8 mph W7.7 kmh W 18.0 mph29.0 kmh 29.84 in1010.5 mb 0.00 in0.0 mm 0.00 in0.0 mm 0.00 in0.0 mm
12:25 AM 55.8°F13.2°C 48.1°F8.9°C 75% 6.5 mph WNW10.5 kmh WNW 13.0 mph20.9 kmh 29.84 in1010.5 mb 0.00 in0.0 mm 0.00 in0.0 mm 0.00 in0.0 mm
12:30 AM 55.7°F13.2°C 47.9°F8.8°C 75% 4.2 mph W6.8 kmh W 13.0 mph20.9 kmh 29.84 in1010.5 mb 0.00 in0.0 mm 0.00 in0.0 mm 0.00 in0.0 mm
12:35 AM 55.6°F13.1°C 47.9°F8.8°C 75% 8.7 mph WNW14.0 kmh WNW 14.0 mph22.5 kmh 29.85 in1010.8 mb 0.00 in0.0 mm 0.00 in0.0 mm 0.00 in0.0 mm
12:40 AM 55.6°F13.1°C 47.9°F8.8°C 75% 4.1 mph W6.6 kmh W 14.0 mph22.5 kmh 29.85 in1010.8 mb 0.00 in0.0 mm 0.00 in0.0 mm 0.00 in0.0 mm
12:45 AM 55.5°F13.1°C 47.8°F8.8°C 75% 7.6 mph W12.2 kmh W 18.0 mph29.0 kmh 29.85 in1010.8 mb 0.00 in0.0 mm 0.00 in0.0 mm 0.00 in0.0 mm
12:50 AM 55.4°F13.0°C 47.7°F8.7°C 75% 8.3 mph W13.4 kmh W 20.0 mph32.2 kmh 29.85 in1010.8 mb 0.00 in0.0 mm 0.00 in0.0 mm 0.00 in0.0 mm
12:55 AM 55.3°F12.9°C 47.2°F8.4°C 74% 7.4 mph W11.9 kmh W 20.0 mph32.2 kmh 29.85 in1010.8 mb 0.00 in0.0 mm 0.00 in0.0 mm 0.00 in0.0 mm
01:00 AM 55.3°F12.9°C 47.2°F8.4°C 74% 5.4 mph W8.7 kmh W 20.0 mph32.2 kmh 29.85 in1010.8 mb 0.00 in0.0 mm 0.00 in0.0 mm 0.00 in0.0 mm
01:05 AM 55.3°F12.9°C 46.9°F8.3°C 73% 5.1 mph W8.2 kmh W 20.0 mph32.2 kmh 29.85 in1010.8 mb 0.00 in0.0 mm 0.00 in0.0 mm 0.00 in0.0 mm
01:10 AM 55.2°F12.9°C 46.8°F8.2°C 73% 3.1 mph W5.0 kmh W 17.0 mph27.4 kmh 29.85 in1010.8 mb 0.00 in0.0 mm 0.00 in0.0 mm 0.00 in0.0 mm
01:15 AM 55.1°F12.8°C 46.3°F7.9°C 72% 5.6 mph W9.0 kmh W 17.0 mph27.4 kmh 29.85 in1010.8 mb 0.00 in0.0 mm 0.00 in0.0 mm 0.00 in0.0 mm
01:20 AM 55.0°F12.8°C 46.2°F7.9°C 72% 5.5 mph W8.9 kmh W 17.0 mph27.4 kmh 29.85 in1010.8 mb 0.00 in0.0 mm 0.00 in0.0 mm 0.00 in0.0 mm
01:25 AM 55.0°F12.8°C 46.2°F7.9°C 72% 6.4 mph WNW10.3 kmh WNW 12.0 mph19.3 kmh 29.85 in1010.8 mb 0.00 in0.0 mm 0.00 in0.0 mm 0.00 in0.0 mm
01:30 AM 54.9°F12.7°C 46.2°F7.9°C 72% 5.2 mph WNW8.4 kmh WNW 16.0 mph25.7 kmh 29.85 in1010.8 mb 0.00 in0.0 mm 0.00 in0.0 mm 0.00 in0.0 mm
01:35 AM 54.8°F12.7°C 46.1°F7.8°C 72% 6.0 mph W9.7 kmh W 16.0 mph25.7 kmh 29.85 in1010.8 mb 0.00 in0.0 mm 0.00 in0.0 mm 0.00 in0.0 mm
01:40 AM 54.7°F12.6°C 46.3°F7.9°C 73% 6.2 mph W10.0 kmh W 16.0 mph25.7 kmh 29.85 in1010.8 mb 0.00 in0.0 mm 0.00 in0.0 mm 0.00 in0.0 mm
01:45 AM 54.5°F12.5°C 46.0°F7.8°C 73% 4.6 mph WNW7.4 kmh WNW 16.0 mph25.7 kmh 29.85 in1010.8 mb 0.00 in0.0 mm 0.00 in0.0 mm 0.00 in0.0 mm
01:50 AM 54.4°F12.4°C 45.9°F7.7°C 73% 7.9 mph WNW12.7 kmh WNW 16.0 mph25.7 kmh 29.85 in1010.8 mb 0.00 in0.0 mm 0.00 in0.0 mm 0.00 in0.0 mm
01:55 AM 54.2°F12.3°C 45.8°F7.7°C 73% 8.6 mph WNW13.8 kmh WNW 16.0 mph25.7 kmh 29.85 in1010.8 mb 0.00 in0.0 mm 0.00 in0.0 mm 0.00 in0.0 mm
02:00 AM 53.9°F12.2°C 45.9°F7.7°C 74% 6.4 mph W10.3 kmh W 16.0 mph25.7 kmh 29.86 in1011.2 mb 0.00 in0.0 mm 0.00 in0.0 mm 0.00 in0.0 mm
02:05 AM 53.8°F12.1°C 45.4°F7.4°C 73% 6.0 mph WNW9.7 kmh WNW 16.0 mph25.7 kmh 29.86 in1011.2 mb 0.00 in0.0 mm 0.00 in0.0 mm 0.00 in0.0 mm
02:10 AM 53.7°F12.1°C 45.3°F7.4°C 73% 5.0 mph WNW8.0 kmh WNW 16.0 mph25.7 kmh 29.86 in1011.2 mb 0.00 in0.0 mm 0.00 in0.0 mm 0.00 in0.0 mm
02:15 AM 53.5°F11.9°C 45.2°F7.3°C 73% 3.6 mph NW5.8 kmh NW 16.0 mph25.7 kmh 29.86 in1011.2 mb 0.00 in0.0 mm 0.00 in0.0 mm 0.00 in0.0 mm
02:20 AM 53.3°F11.8°C 45.0°F7.2°C 73% 3.4 mph WNW5.5 kmh WNW 16.0 mph25.7 kmh 29.86 in1011.2 mb 0.00 in0.0 mm 0.00 in0.0 mm 0.00 in0.0 mm
02:25 AM 53.3°F11.8°C 45.0°F7.2°C 73% 3.2 mph WNW5.1 kmh WNW 15.0 mph24.1 kmh 29.86 in1011.2 mb 0.00 in0.0 mm 0.00 in0.0 mm 0.00 in0.0 mm
02:30 AM 53.3°F11.8°C 45.0°F7.2°C 73% 1.7 mph NW2.7 kmh NW 10.0 mph16.1 kmh 29.86 in1011.2 mb 0.00 in0.0 mm 0.00 in0.0 mm 0.00 in0.0 mm
02:35 AM 53.2°F11.8°C 44.9°F7.2°C 73% 3.3 mph NW5.3 kmh NW 10.0 mph16.1 kmh 29.86 in1011.2 mb 0.00 in0.0 mm 0.00 in0.0 mm 0.00 in0.0 mm
02:40 AM 53.1°F11.7°C 44.3°F6.8°C 72% 3.4 mph WNW5.5 kmh WNW 10.0 mph16.1 kmh 29.85 in1010.8 mb 0.00 in0.0 mm 0.00 in0.0 mm 0.00 in0.0 mm
02:45 AM 53.0°F11.7°C 44.2°F6.8°C 72% 2.2 mph NW3.5 kmh NW 10.0 mph16.1 kmh 29.85 in1010.8 mb 0.00 in0.0 mm 0.00 in0.0 mm 0.00 in0.0 mm
02:50 AM 53.0°F11.7°C 44.3°F6.8°C 72% 3.7 mph NW6.0 kmh NW 10.0 mph16.1 kmh 29.85 in1010.8 mb 0.00 in0.0 mm 0.00 in0.0 mm 0.00 in0.0 mm
02:55 AM 52.9°F11.6°C 44.2°F6.8°C 72% 4.3 mph NW6.9 kmh NW 12.0 mph19.3 kmh 29.85 in1010.8 mb 0.00 in0.0 mm 0.00 in0.0 mm 0.00 in0.0 mm
03:00 AM 52.7°F11.5°C 44.0°F6.7°C 72% 3.6 mph NW5.8 kmh NW 13.0 mph20.9 kmh 29.85 in1010.8 mb 0.00 in0.0 mm 0.00 in0.0 mm 0.00 in0.0 mm
03:05 AM 52.5°F11.4°C 43.8°F6.6°C 72% 4.2 mph NW6.8 kmh NW 13.0 mph20.9 kmh 29.85 in1010.8 mb 0.00 in0.0 mm 0.00 in0.0 mm 0.00 in0.0 mm
03:10 AM 52.2°F11.2°C 43.9°F6.6°C 73% 2.2 mph NW3.5 kmh NW 13.0 mph20.9 kmh 29.85 in1010.8 mb 0.00 in0.0 mm 0.00 in0.0 mm 0.00 in0.0 mm
03:15 AM 52.1°F11.2°C 43.8°F6.6°C 73% 4.1 mph NW6.6 kmh NW 13.0 mph20.9 kmh 29.85 in1010.8 mb 0.00 in0.0 mm 0.00 in0.0 mm 0.00 in0.0 mm
03:20 AM 52.0°F11.1°C 43.7°F6.5°C 73% 3.7 mph W6.0 kmh W 13.0 mph20.9 kmh 29.84 in1010.5 mb 0.00 in0.0 mm 0.00 in0.0 mm 0.00 in0.0 mm
03:25 AM 51.9°F11.1°C 43.6°F6.4°C 73% 4.7 mph WNW7.6 kmh WNW 11.0 mph17.7 kmh 29.86 in1011.2 mb 0.00 in0.0 mm 0.00 in0.0 mm 0.00 in0.0 mm
03:30 AM 51.9°F11.1°C 44.0°F6.7°C 74% 4.8 mph WNW7.7 kmh WNW 11.0 mph17.7 kmh 29.86 in1011.2 mb 0.00 in0.0 mm 0.00 in0.0 mm 0.00 in0.0 mm
03:35 AM 51.8°F11.0°C 43.8°F6.6°C 74% 3.7 mph WNW6.0 kmh WNW 14.0 mph22.5 kmh 29.88 in1011.9 mb 0.00 in0.0 mm 0.00 in0.0 mm 0.00 in0.0 mm
03:40 AM 51.8°F11.0°C 43.8°F6.6°C 74% 3.3 mph W5.3 kmh W 14.0 mph22.5 kmh 29.88 in1011.9 mb 0.00 in0.0 mm 0.00 in0.0 mm 0.00 in0.0 mm
03:45 AM 51.8°F11.0°C 44.1°F6.7°C 75% 4.7 mph W7.6 kmh W 14.0 mph22.5 kmh 29.88 in1011.9 mb 0.00 in0.0 mm 0.00 in0.0 mm 0.00 in0.0 mm
03:50 AM 51.7°F10.9°C 44.1°F6.7°C 75% 5.2 mph WNW8.4 kmh WNW 14.0 mph22.5 kmh 29.89 in1012.2 mb 0.00 in0.0 mm 0.00 in0.0 mm 0.00 in0.0 mm
03:55 AM 51.6°F10.9°C 44.0°F6.7°C 75% 3.1 mph WNW5.0 kmh WNW 13.0 mph20.9 kmh 29.89 in1012.2 mb 0.00 in0.0 mm 0.00 in0.0 mm 0.00 in0.0 mm
04:00 AM 51.6°F10.9°C 43.7°F6.5°C 74% 4.3 mph WNW6.9 kmh WNW 13.0 mph20.9 kmh 29.89 in1012.2 mb 0.00 in0.0 mm 0.00 in0.0 mm 0.00 in0.0 mm
04:05 AM 51.5°F10.8°C 43.6°F6.4°C 74% 4.3 mph WNW6.9 kmh WNW 10.0 mph16.1 kmh 29.89 in1012.2 mb 0.00 in0.0 mm 0.00 in0.0 mm 0.00 in0.0 mm
04:10 AM 51.4°F10.8°C 43.8°F6.6°C 75% 6.0 mph W9.7 kmh W 14.0 mph22.5 kmh 29.90 in1012.5 mb 0.00 in0.0 mm 0.00 in0.0 mm 0.00 in0.0 mm
04:15 AM 51.4°F10.8°C 43.5°F6.4°C 74% 5.7 mph NW9.2 kmh NW 15.0 mph24.1 kmh 29.90 in1012.5 mb 0.00 in0.0 mm 0.00 in0.0 mm 0.00 in0.0 mm
04:20 AM 51.3°F10.7°C 43.7°F6.5°C 75% 3.4 mph W5.5 kmh W 15.0 mph24.1 kmh 29.90 in1012.5 mb 0.00 in0.0 mm 0.00 in0.0 mm 0.00 in0.0 mm
04:25 AM 51.3°F10.7°C 43.7°F6.5°C 75% 4.7 mph NW7.6 kmh NW 15.0 mph24.1 kmh 29.91 in1012.9 mb 0.00 in0.0 mm 0.00 in0.0 mm 0.00 in0.0 mm
04:30 AM 51.2°F10.7°C 43.6°F6.4°C 75% 3.2 mph WNW5.1 kmh WNW 13.0 mph20.9 kmh 29.92 in1013.2 mb 0.00 in0.0 mm 0.00 in0.0 mm 0.00 in0.0 mm
04:35 AM 51.1°F10.6°C 43.4°F6.3°C 75% 4.4 mph WNW7.1 kmh WNW 12.0 mph19.3 kmh 29.92 in1013.2 mb 0.00 in0.0 mm 0.00 in0.0 mm 0.00 in0.0 mm
04:40 AM 51.0°F10.6°C 43.4°F6.3°C 75% 3.9 mph W6.3 kmh W 12.0 mph19.3 kmh 29.92 in1013.2 mb 0.00 in0.0 mm 0.00 in0.0 mm 0.00 in0.0 mm
04:45 AM 50.9°F10.5°C 42.9°F6.1°C 74% 4.9 mph WNW7.9 kmh WNW 10.0 mph16.1 kmh 29.92 in1013.2 mb 0.00 in0.0 mm 0.00 in0.0 mm 0.00 in0.0 mm
04:50 AM 50.8°F10.4°C 42.5°F5.8°C 73% 5.8 mph NW9.3 kmh NW 11.0 mph17.7 kmh 29.92 in1013.2 mb 0.00 in0.0 mm 0.00 in0.0 mm 0.00 in0.0 mm
04:54 AM 50.7°F10.4°C 42.1°F5.6°C 72% 5.8 mph WNW9.3 kmh WNW 13.0 mph20.9 kmh 29.92 in1013.2 mb 0.00 in0.0 mm 0.00 in0.0 mm 0.00 in0.0 mm
04:59 AM 50.5°F10.3°C 42.3°F5.7°C 73% 3.9 mph WNW6.3 kmh WNW 13.0 mph20.9 kmh 29.93 in1013.5 mb 0.00 in0.0 mm 0.00 in0.0 mm 0.00 in0.0 mm
05:04 AM 50.4°F10.2°C 42.2°F5.7°C 73% 4.5 mph WNW7.2 kmh WNW 13.0 mph20.9 kmh 29.93 in1013.5 mb 0.00 in0.0 mm 0.00 in0.0 mm 0.00 in0.0 mm
05:09 AM 50.1°F10.1°C 41.9°F5.5°C 73% 2.5 mph WNW4.0 kmh WNW 13.0 mph20.9 kmh 29.93 in1013.5 mb 0.00 in0.0 mm 0.00 in0.0 mm 0.00 in0.0 mm
05:14 AM 50.0°F10.0°C 42.1°F5.6°C 74% 3.8 mph NW6.1 kmh NW 13.0 mph20.9 kmh 29.93 in1013.5 mb 0.00 in0.0 mm 0.00 in0.0 mm 0.00 in0.0 mm
05:19 AM 49.8°F9.9°C 42.3°F5.7°C 75% 2.1 mph NW3.4 kmh NW 10.0 mph16.1 kmh 29.94 in1013.9 mb 0.00 in0.0 mm 0.00 in0.0 mm 0.00 in0.0 mm
05:24 AM 49.7°F9.8°C 42.2°F5.7°C 75% 3.3 mph WNW5.3 kmh WNW 9.0 mph14.5 kmh 29.94 in1013.9 mb 0.00 in0.0 mm 0.00 in0.0 mm 0.00 in0.0 mm
05:29 AM 49.6°F9.8°C 42.4°F5.8°C 76% 2.2 mph WNW3.5 kmh WNW 8.0 mph12.9 kmh 29.95 in1014.2 mb 0.00 in0.0 mm 0.00 in0.0 mm 0.00 in0.0 mm
05:34 AM 49.5°F9.7°C 42.3°F5.7°C 76% 3.3 mph W5.3 kmh W 9.0 mph14.5 kmh 29.95 in1014.2 mb 0.00 in0.0 mm 0.00 in0.0 mm 0.00 in0.0 mm
05:39 AM 49.4°F9.7°C 42.1°F5.6°C 76% 3.4 mph WNW5.5 kmh WNW 9.0 mph14.5 kmh 29.96 in1014.6 mb 0.00 in0.0 mm 0.00 in0.0 mm 0.00 in0.0 mm
05:44 AM 49.3°F9.6°C 42.5°F5.8°C 77% 4.4 mph WNW7.1 kmh WNW 10.0 mph16.1 kmh 29.96 in1014.6 mb 0.00 in0.0 mm 0.00 in0.0 mm 0.00 in0.0 mm
05:49 AM 49.2°F9.6°C 42.4°F5.8°C 77% 3.5 mph WNW5.6 kmh WNW 11.0 mph17.7 kmh 29.96 in1014.6 mb 0.00 in0.0 mm 0.00 in0.0 mm 0.00 in0.0 mm
05:54 AM 49.1°F9.5°C 42.3°F5.7°C 77% 3.4 mph W5.5 kmh W 11.0 mph17.7 kmh 29.96 in1014.6 mb 0.00 in0.0 mm 0.00 in0.0 mm 0.00 in0.0 mm
05:59 AM 48.9°F9.4°C 42.4°F5.8°C 78% 3.4 mph WNW5.5 kmh WNW 11.0 mph17.7 kmh 29.96 in1014.6 mb 0.00 in0.0 mm 0.00 in0.0 mm 0.00 in0.0 mm
06:04 AM 48.8°F9.3°C 41.6°F5.3°C 76% 6.5 mph WNW10.5 kmh WNW 11.0 mph17.7 kmh 29.97 in1014.9 mb 0.00 in0.0 mm 0.00 in0.0 mm 0.00 in0.0 mm
06:09 AM 48.7°F9.3°C 41.2°F5.1°C 75% 4.9 mph WNW7.9 kmh WNW 19.0 mph30.6 kmh 29.97 in1014.9 mb 0.00 in0.0 mm 0.00 in0.0 mm 0.00 in0.0 mm
06:14 AM 48.5°F9.2°C 40.7°F4.8°C 74% 6.7 mph WNW10.8 kmh WNW 19.0 mph30.6 kmh 29.98 in1015.2 mb 0.00 in0.0 mm 0.00 in0.0 mm 0.00 in0.0 mm
06:19 AM 48.5°F9.2°C 40.3°F4.6°C 73% 5.7 mph WNW9.2 kmh WNW 19.0 mph30.6 kmh 29.98 in1015.2 mb 0.00 in0.0 mm 0.00 in0.0 mm 0.00 in0.0 mm
06:24 AM 48.5°F9.2°C 40.3°F4.6°C 73% 7.3 mph WNW11.7 kmh WNW 19.0 mph30.6 kmh 29.98 in1015.2 mb 0.00 in0.0 mm 0.00 in0.0 mm 0.00 in0.0 mm
06:29 AM 48.5°F9.2°C 40.2°F4.6°C 73% 5.5 mph WNW8.9 kmh WNW 17.0 mph27.4 kmh 29.99 in1015.6 mb 0.00 in0.0 mm 0.00 in0.0 mm 0.00 in0.0 mm
06:34 AM 48.5°F9.2°C 40.2°F4.6°C 73% 4.4 mph WNW7.1 kmh WNW 17.0 mph27.4 kmh 29.99 in1015.6 mb 0.00 in0.0 mm 0.00 in0.0 mm 0.00 in0.0 mm
06:39 AM 48.5°F9.2°C 40.3°F4.6°C 73% 5.8 mph WNW9.3 kmh WNW 16.0 mph25.7 kmh 30.00 in1015.9 mb 0.00 in0.0 mm 0.00 in0.0 mm 0.00 in0.0 mm
06:44 AM 48.6°F9.2°C 40.4°F4.7°C 73% 5.8 mph NW9.3 kmh NW 13.0 mph20.9 kmh 29.99 in1015.6 mb 0.00 in0.0 mm 0.00 in0.0 mm 0.00 in0.0 mm
06:49 AM 48.6°F9.2°C 40.4°F4.7°C 73% 3.1 mph NW5.0 kmh NW 13.0 mph20.9 kmh 30.00 in1015.9 mb 0.00 in0.0 mm 0.00 in0.0 mm 0.00 in0.0 mm
06:54 AM 48.7°F9.3°C 40.5°F4.7°C 73% 5.2 mph W8.4 kmh W 13.0 mph20.9 kmh 30.00 in1015.9 mb 0.00 in0.0 mm 0.00 in0.0 mm 0.00 in0.0 mm
06:59 AM 48.7°F9.3°C 40.2°F4.6°C 72% 6.2 mph WNW10.0 kmh WNW 14.0 mph22.5 kmh 30.01 in1016.3 mb 0.00 in0.0 mm 0.00 in0.0 mm 0.00 in0.0 mm
07:04 AM 48.7°F9.3°C 40.2°F4.6°C 72% 4.7 mph WNW7.6 kmh WNW 14.0 mph22.5 kmh 30.01 in1016.3 mb 0.00 in0.0 mm 0.00 in0.0 mm 0.00 in0.0 mm
07:09 AM 48.8°F9.3°C 40.3°F4.6°C 72% 5.3 mph WNW8.5 kmh WNW 14.0 mph22.5 kmh 30.02 in1016.6 mb 0.00 in0.0 mm 0.00 in0.0 mm 0.00 in0.0 mm
07:14 AM 48.7°F9.3°C 40.2°F4.6°C 72% 5.3 mph WNW8.5 kmh WNW 14.0 mph22.5 kmh 30.02 in1016.6 mb 0.00 in0.0 mm 0.00 in0.0 mm 0.00 in0.0 mm
07:19 AM 48.8°F9.3°C 39.5°F4.2°C 70% 4.4 mph NW7.1 kmh NW 14.0 mph22.5 kmh 30.02 in1016.6 mb 0.00 in0.0 mm 0.00 in0.0 mm 0.00 in0.0 mm
07:24 AM 48.9°F9.4°C 39.6°F4.2°C 70% 3.5 mph NW5.6 kmh NW 14.0 mph22.5 kmh 30.03 in1016.9 mb 0.00 in0.0 mm 0.00 in0.0 mm 0.00 in0.0 mm
07:29 AM 49.1°F9.5°C 39.5°F4.2°C 69% 5.6 mph NW9.0 kmh NW 14.0 mph22.5 kmh 30.03 in1016.9 mb 0.00 in0.0 mm 0.00 in0.0 mm 0.00 in0.0 mm
07:34 AM 49.2°F9.6°C 39.5°F4.2°C 69% 2.7 mph NNW4.3 kmh NNW 14.0 mph22.5 kmh 30.03 in1016.9 mb 0.00 in0.0 mm 0.00 in0.0 mm 0.00 in0.0 mm
07:39 AM 49.2°F9.6°C 38.7°F3.7°C 67% 6.0 mph WNW9.7 kmh WNW 18.0 mph29.0 kmh 30.03 in1016.9 mb 0.00 in0.0 mm 0.00 in0.0 mm 0.00 in0.0 mm
07:44 AM 49.3°F9.6°C 38.4°F3.6°C 66% 8.3 mph NW13.4 kmh NW 18.0 mph29.0 kmh 30.03 in1016.9 mb 0.00 in0.0 mm 0.00 in0.0 mm 0.00 in0.0 mm
07:49 AM 49.3°F9.6°C 38.8°F3.8°C 67% 5.4 mph NW8.7 kmh NW 18.0 mph29.0 kmh 30.04 in1017.3 mb 0.00 in0.0 mm 0.00 in0.0 mm 0.00 in0.0 mm
07:54 AM 49.3°F9.6°C 38.0°F3.3°C 65% 10.5 mph NW16.9 kmh NW 18.0 mph29.0 kmh 30.04 in1017.3 mb 0.00 in0.0 mm 0.00 in0.0 mm 0.00 in0.0 mm
07:59 AM 49.3°F9.6°C 38.4°F3.6°C 66% 4.0 mph NW6.4 kmh NW 18.0 mph29.0 kmh 30.05 in1017.6 mb 0.00 in0.0 mm 0.00 in0.0 mm 0.00 in0.0 mm
08:04 AM 49.7°F9.8°C 38.5°F3.6°C 65% 4.4 mph NW7.1 kmh NW 18.0 mph29.0 kmh 30.05 in1017.6 mb 0.00 in0.0 mm 0.00 in0.0 mm 0.00 in0.0 mm
08:09 AM 50.0°F10.0°C 38.8°F3.8°C 65% 4.9 mph NW7.9 kmh NW 18.0 mph29.0 kmh 30.05 in1017.6 mb 0.00 in0.0 mm 0.00 in0.0 mm 0.00 in0.0 mm
08:14 AM 50.1°F10.1°C 39.3°F4.1°C 66% 3.2 mph WNW5.1 kmh WNW 17.0 mph27.4 kmh 30.06 in1017.9 mb 0.00 in0.0 mm 0.00 in0.0 mm 0.00 in0.0 mm
08:19 AM 50.1°F10.1°C 38.5°F3.6°C 64% 5.1 mph NW8.2 kmh NW 14.0 mph22.5 kmh 30.06 in1017.9 mb 0.00 in0.0 mm 0.00 in0.0 mm 0.00 in0.0 mm
08:24 AM 50.4°F10.2°C 38.4°F3.6°C 63% 7.7 mph NW12.4 kmh NW 17.0 mph27.4 kmh 30.06 in1017.9 mb 0.00 in0.0 mm 0.00 in0.0 mm 0.00 in0.0 mm
08:29 AM 50.2°F10.1°C 38.6°F3.7°C 64% 4.1 mph NW6.6 kmh NW 18.0 mph29.0 kmh 30.06 in1017.9 mb 0.00 in0.0 mm 0.00 in0.0 mm 0.00 in0.0 mm
08:34 AM 50.6°F10.3°C 39.4°F4.1°C 65% 3.0 mph WNW4.8 kmh WNW 18.0 mph29.0 kmh 30.06 in1017.9 mb 0.00 in0.0 mm 0.00 in0.0 mm 0.00 in0.0 mm
08:39 AM 51.0°F10.6°C 38.5°F3.6°C 62% 6.5 mph NW10.5 kmh NW 18.0 mph29.0 kmh 30.07 in1018.3 mb 0.00 in0.0 mm 0.00 in0.0 mm 0.00 in0.0 mm
08:44 AM 51.2°F10.7°C 39.1°F3.9°C 63% 5.4 mph NW8.7 kmh NW 18.0 mph29.0 kmh 30.07 in1018.3 mb 0.00 in0.0 mm 0.00 in0.0 mm 0.00 in0.0 mm
08:49 AM 51.0°F10.6°C 38.1°F3.4°C 61% 7.7 mph NW12.4 kmh NW 20.0 mph32.2 kmh 30.07 in1018.3 mb 0.00 in0.0 mm 0.00 in0.0 mm 0.00 in0.0 mm
08:54 AM 51.1°F10.6°C 38.6°F3.7°C 62% 4.7 mph NW7.6 kmh NW 20.0 mph32.2 kmh 30.08 in1018.6 mb 0.00 in0.0 mm 0.00 in0.0 mm 0.00 in0.0 mm
08:59 AM 51.7°F10.9°C 39.2°F4.0°C 62% 5.7 mph NW9.2 kmh NW 20.0 mph32.2 kmh 30.08 in1018.6 mb 0.00 in0.0 mm 0.00 in0.0 mm 0.00 in0.0 mm
09:04 AM 51.9°F11.1°C 39.0°F3.9°C 61% 3.2 mph NW5.1 kmh NW 20.0 mph32.2 kmh 30.08 in1018.6 mb 0.00 in0.0 mm 0.00 in0.0 mm 0.00 in0.0 mm
09:09 AM 52.0°F11.1°C 38.6°F3.7°C 60% 6.6 mph NW10.6 kmh NW 18.0 mph29.0 kmh 30.08 in1018.6 mb 0.00 in0.0 mm 0.00 in0.0 mm 0.00 in0.0 mm
09:14 AM 52.5°F11.4°C 39.5°F4.2°C 61% 5.8 mph NW9.3 kmh NW 13.0 mph20.9 kmh 30.09 in1019.0 mb 0.00 in0.0 mm 0.00 in0.0 mm 0.00 in0.0 mm
09:19 AM 52.2°F11.2°C 37.0°F2.8°C 56% 9.3 mph NW15.0 kmh NW 17.0 mph27.4 kmh 30.09 in1019.0 mb 0.00 in0.0 mm 0.00 in0.0 mm 0.00 in0.0 mm
09:24 AM 52.1°F11.2°C 38.3°F3.5°C 59% 3.9 mph NW6.3 kmh NW 17.0 mph27.4 kmh 30.08 in1018.6 mb 0.00 in0.0 mm 0.00 in0.0 mm 0.00 in0.0 mm
09:29 AM 52.2°F11.2°C 38.4°F3.6°C 59% 3.9 mph NW6.3 kmh NW 17.0 mph27.4 kmh 30.08 in1018.6 mb 0.00 in0.0 mm 0.00 in0.0 mm 0.00 in0.0 mm
09:34 AM 52.8°F11.6°C 38.5°F3.6°C 58% 3.6 mph NW5.8 kmh NW 17.0 mph27.4 kmh 30.08 in1018.6 mb 0.00 in0.0 mm 0.00 in0.0 mm 0.00 in0.0 mm
09:39 AM 53.4°F11.9°C 38.2°F3.4°C 56% 5.3 mph NW8.5 kmh NW 14.0 mph22.5 kmh 30.08 in1018.6 mb 0.00 in0.0 mm 0.00 in0.0 mm 0.00 in0.0 mm
09:44 AM 53.5°F11.9°C 37.8°F3.2°C 55% 8.6 mph NW13.8 kmh NW 14.0 mph22.5 kmh 30.09 in1019.0 mb 0.00 in0.0 mm 0.00 in0.0 mm 0.00 in0.0 mm
09:49 AM 53.4°F11.9°C 37.7°F3.2°C 55% 8.5 mph NW13.7 kmh NW 18.0 mph29.0 kmh 30.08 in1018.6 mb 0.00 in0.0 mm 0.00 in0.0 mm 0.00 in0.0 mm
09:53 AM 53.5°F11.9°C 37.3°F2.9°C 54% 9.2 mph NW14.8 kmh NW 18.0 mph29.0 kmh 30.08 in1018.6 mb 0.00 in0.0 mm 0.00 in0.0 mm 0.00 in0.0 mm
09:58 AM 53.9°F12.2°C 38.2°F3.4°C 55% 6.4 mph NW10.3 kmh NW 18.0 mph29.0 kmh 30.08 in1018.6 mb 0.00 in0.0 mm 0.00 in0.0 mm 0.00 in0.0 mm
10:03 AM 54.1°F12.3°C 38.8°F3.8°C 56% 5.0 mph NW8.0 kmh NW 17.0 mph27.4 kmh 30.08 in1018.6 mb 0.00 in0.0 mm 0.00 in0.0 mm 0.00 in0.0 mm
10:08 AM 54.3°F12.4°C 37.6°F3.1°C 53% 5.3 mph NW8.5 kmh NW 18.0 mph29.0 kmh 30.08 in1018.6 mb 0.00 in0.0 mm 0.00 in0.0 mm 0.00 in0.0 mm
10:13 AM 54.7°F12.6°C 37.9°F3.3°C 53% 6.0 mph NW9.7 kmh NW 18.0 mph29.0 kmh 30.08 in1018.6 mb 0.00 in0.0 mm 0.00 in0.0 mm 0.00 in0.0 mm
10:18 AM 54.7°F12.6°C 36.9°F2.7°C 51% 6.8 mph NW10.9 kmh NW 18.0 mph29.0 kmh 30.09 in1019.0 mb 0.00 in0.0 mm 0.00 in0.0 mm 0.00 in0.0 mm
10:23 AM 54.9°F12.7°C 37.6°F3.1°C 52% 2.7 mph NW4.3 kmh NW 18.0 mph29.0 kmh 30.08 in1018.6 mb 0.00 in0.0 mm 0.00 in0.0 mm 0.00 in0.0 mm
10:29 AM 55.7°F13.2°C 37.3°F2.9°C 50% 5.1 mph NW8.2 kmh NW 18.0 mph29.0 kmh 30.08 in1018.6 mb 0.00 in0.0 mm 0.00 in0.0 mm 0.00 in0.0 mm
10:34 AM 55.9°F13.3°C 38.0°F3.3°C 51% 4.9 mph NW7.9 kmh NW 18.0 mph29.0 kmh 30.09 in1019.0 mb 0.00 in0.0 mm 0.00 in0.0 mm 0.00 in0.0 mm
10:39 AM 55.9°F13.3°C 38.0°F3.3°C 51% 4.9 mph NW7.9 kmh NW 13.0 mph20.9 kmh 30.09 in1019.0 mb 0.00 in0.0 mm 0.00 in0.0 mm 0.00 in0.0 mm
10:44 AM 56.4°F13.6°C 36.4°F2.4°C 47% 6.3 mph NW10.1 kmh NW 14.0 mph22.5 kmh 30.09 in1019.0 mb 0.00 in0.0 mm 0.00 in0.0 mm 0.00 in0.0 mm
10:49 AM 56.6°F13.7°C 37.1°F2.8°C 48% 3.8 mph WNW6.1 kmh WNW 16.0 mph25.7 kmh 30.08 in1018.6 mb 0.00 in0.0 mm 0.00 in0.0 mm 0.00 in0.0 mm
11:10 AM 57.8°F14.3°C 37.1°F2.8°C 46% 10.0 mph NNW16.1 kmh NNW 15.0 mph24.1 kmh 30.09 in1019.0 mb 0.00 in0.0 mm 0.00 in0.0 mm 0.00 in0.0 mm
11:15 AM 57.6°F14.2°C 36.9°F2.7°C 46% 5.3 mph NW8.5 kmh NW 17.0 mph27.4 kmh 30.09 in1019.0 mb 0.00 in0.0 mm 0.00 in0.0 mm 0.00 in0.0 mm
11:20 AM 57.7°F14.3°C 36.4°F2.4°C 45% 7.2 mph NW11.6 kmh NW 17.0 mph27.4 kmh 30.09 in1019.0 mb 0.00 in0.0 mm 0.00 in0.0 mm 0.00 in0.0 mm
11:25 AM 58.2°F14.6°C 36.9°F2.7°C 45% 6.2 mph NW10.0 kmh NW 17.0 mph27.4 kmh 30.09 in1019.0 mb 0.00 in0.0 mm 0.00 in0.0 mm 0.00 in0.0 mm
11:30 AM 58.4°F14.7°C 37.7°F3.2°C 46% 4.9 mph NW7.9 kmh NW 17.0 mph27.4 kmh 30.09 in1019.0 mb 0.00 in0.0 mm 0.00 in0.0 mm 0.00 in0.0 mm
11:35 AM 59.1°F15.1°C 38.3°F3.5°C 46% 5.0 mph NW8.0 kmh NW 17.0 mph27.4 kmh 30.09 in1019.0 mb 0.00 in0.0 mm 0.00 in0.0 mm 0.00 in0.0 mm
11:40 AM 58.7°F14.8°C 36.7°F2.6°C 44% 9.5 mph WNW15.3 kmh WNW 20.0 mph32.2 kmh 30.08 in1018.6 mb 0.00 in0.0 mm 0.00 in0.0 mm 0.00 in0.0 mm
11:45 AM 59.0°F15.0°C 39.3°F4.1°C 48% 4.8 mph NW7.7 kmh NW 23.0 mph37.0 kmh 30.08 in1018.6 mb 0.00 in0.0 mm 0.00 in0.0 mm 0.00 in0.0 mm
11:50 AM 59.2°F15.1°C 37.2°F2.9°C 44% 7.4 mph NW11.9 kmh NW 23.0 mph37.0 kmh 30.08 in1018.6 mb 0.00 in0.0 mm 0.00 in0.0 mm 0.00 in0.0 mm
11:55 AM 59.3°F15.2°C 36.7°F2.6°C 43% 4.7 mph NW7.6 kmh NW 23.0 mph37.0 kmh 30.08 in1018.6 mb 0.00 in0.0 mm 0.00 in0.0 mm 0.00 in0.0 mm
12:00 PM 59.7°F15.4°C 36.6°F2.6°C 42% 6.9 mph NW11.1 kmh NW 23.0 mph37.0 kmh 30.08 in1018.6 mb 0.00 in0.0 mm 0.00 in0.0 mm 0.00 in0.0 mm
12:05 PM 59.7°F15.4°C 36.6°F2.6°C 42% 5.8 mph NW9.3 kmh NW 19.0 mph30.6 kmh 30.08 in1018.6 mb 0.00 in0.0 mm 0.00 in0.0 mm 0.00 in0.0 mm
12:10 PM 59.8°F15.4°C 35.9°F2.2°C 41% 6.1 mph NW9.8 kmh NW 19.0 mph30.6 kmh 30.08 in1018.6 mb 0.00 in0.0 mm 0.00 in0.0 mm 0.00 in0.0 mm
12:15 PM 60.3°F15.7°C 37.0°F2.8°C 42% 5.3 mph NW8.5 kmh NW 19.0 mph30.6 kmh 30.08 in1018.6 mb 0.00 in0.0 mm 0.00 in0.0 mm 0.00 in0.0 mm
12:20 PM 60.5°F15.8°C 37.2°F2.9°C 42% 4.6 mph NW7.4 kmh NW 19.0 mph30.6 kmh 30.07 in1018.3 mb 0.00 in0.0 mm 0.00 in0.0 mm 0.00 in0.0 mm
12:25 PM 60.6°F15.9°C 36.0°F2.2°C 40% 7.0 mph NW11.3 kmh NW 19.0 mph30.6 kmh 30.07 in1018.3 mb 0.00 in0.0 mm 0.00 in0.0 mm 0.00 in0.0 mm
12:30 PM 61.0°F16.1°C 38.3°F3.5°C 43% 3.8 mph N6.1 kmh N 19.0 mph30.6 kmh 30.07 in1018.3 mb 0.00 in0.0 mm 0.00 in0.0 mm 0.00 in0.0 mm
12:35 PM 61.8°F16.6°C 37.8°F3.2°C 41% 2.9 mph W4.7 kmh W 19.0 mph30.6 kmh 30.07 in1018.3 mb 0.00 in0.0 mm 0.00 in0.0 mm 0.00 in0.0 mm
12:40 PM 62.0°F16.7°C 39.1°F3.9°C 43% 2.8 mph NW4.5 kmh NW 15.0 mph24.1 kmh 30.07 in1018.3 mb 0.00 in0.0 mm 0.00 in0.0 mm 0.00 in0.0 mm
12:45 PM 62.2°F16.8°C 38.7°F3.7°C 42% 2.8 mph WNW4.5 kmh WNW 11.0 mph17.7 kmh 30.07 in1018.3 mb 0.00 in0.0 mm 0.00 in0.0 mm 0.00 in0.0 mm
12:50 PM 62.5°F16.9°C 38.5°F3.6°C 41% 6.4 mph NW10.3 kmh NW 13.0 mph20.9 kmh 30.07 in1018.3 mb 0.00 in0.0 mm 0.00 in0.0 mm 0.00 in0.0 mm
12:55 PM 62.5°F16.9°C 39.1°F3.9°C 42% 7.5 mph NW12.1 kmh NW 17.0 mph27.4 kmh 30.07 in1018.3 mb 0.00 in0.0 mm 0.00 in0.0 mm 0.00 in0.0 mm
01:00 PM 62.5°F16.9°C 37.2°F2.9°C 39% 4.5 mph W7.2 kmh W 17.0 mph27.4 kmh 30.07 in1018.3 mb 0.00 in0.0 mm 0.00 in0.0 mm 0.00 in0.0 mm
01:05 PM 62.3°F16.8°C 37.7°F3.2°C 40% 5.6 mph W9.0 kmh W 17.0 mph27.4 kmh 30.07 in1018.3 mb 0.00 in0.0 mm 0.00 in0.0 mm 0.00 in0.0 mm
01:10 PM 62.7°F17.1°C 38.5°F3.6°C 41% 5.8 mph WNW9.3 kmh WNW 17.0 mph27.4 kmh 30.07 in1018.3 mb 0.00 in0.0 mm 0.00 in0.0 mm 0.00 in0.0 mm
01:15 PM 63.0°F17.2°C 38.1°F3.4°C 40% 6.4 mph NW10.3 kmh NW 15.0 mph24.1 kmh 30.07 in1018.3 mb 0.00 in0.0 mm 0.00 in0.0 mm 0.00 in0.0 mm
01:20 PM 62.4°F16.9°C 36.9°F2.7°C 39% 11.3 mph WNW18.2 kmh WNW 21.0 mph33.8 kmh 30.07 in1018.3 mb 0.00 in0.0 mm 0.00 in0.0 mm 0.00 in0.0 mm
01:25 PM 62.3°F16.8°C 37.5°F3.1°C 40% 8.1 mph WNW13.0 kmh WNW 21.0 mph33.8 kmh 30.07 in1018.3 mb 0.00 in0.0 mm 0.00 in0.0 mm 0.00 in0.0 mm
01:30 PM 62.9°F17.2°C 38.1°F3.4°C 40% 8.1 mph WNW13.0 kmh WNW 21.0 mph33.8 kmh 30.07 in1018.3 mb 0.00 in0.0 mm 0.00 in0.0 mm 0.00 in0.0 mm
01:35 PM 62.5°F16.9°C 36.4°F2.4°C 38% 12.4 mph W20.0 kmh W 21.0 mph33.8 kmh 30.07 in1018.3 mb 0.00 in0.0 mm 0.00 in0.0 mm 0.00 in0.0 mm
01:40 PM 62.8°F17.1°C 39.4°F4.1°C 42% 3.2 mph NW5.1 kmh NW 21.0 mph33.8 kmh 30.07 in1018.3 mb 0.00 in0.0 mm 0.00 in0.0 mm 0.00 in0.0 mm
01:45 PM 63.2°F17.3°C 38.3°F3.5°C 40% 6.3 mph WNW10.1 kmh WNW 21.0 mph33.8 kmh 30.07 in1018.3 mb 0.00 in0.0 mm 0.00 in0.0 mm 0.00 in0.0 mm
01:50 PM 63.3°F17.4°C 37.8°F3.2°C 39% 5.2 mph NNW8.4 kmh NNW 17.0 mph27.4 kmh 30.07 in1018.3 mb 0.00 in0.0 mm 0.00 in0.0 mm 0.00 in0.0 mm
01:55 PM 63.6°F17.6°C 38.0°F3.3°C 39% 4.3 mph NW6.9 kmh NW 17.0 mph27.4 kmh 30.07 in1018.3 mb 0.00 in0.0 mm 0.00 in0.0 mm 0.00 in0.0 mm
02:00 PM 63.7°F17.6°C 36.7°F2.6°C 37% 5.0 mph NW8.0 kmh NW 17.0 mph27.4 kmh 30.07 in1018.3 mb 0.00 in0.0 mm 0.00 in0.0 mm 0.00 in0.0 mm
02:05 PM 63.8°F17.7°C 36.8°F2.7°C 37% 7.0 mph NW11.3 kmh NW 17.0 mph27.4 kmh 30.06 in1017.9 mb 0.00 in0.0 mm 0.00 in0.0 mm 0.00 in0.0 mm
02:10 PM 64.0°F17.8°C 38.4°F3.6°C 39% 4.9 mph NW7.9 kmh NW 17.0 mph27.4 kmh 30.07 in1018.3 mb 0.00 in0.0 mm 0.00 in0.0 mm 0.00 in0.0 mm
02:15 PM 64.0°F17.8°C 37.7°F3.2°C 38% 4.4 mph NW7.1 kmh NW 17.0 mph27.4 kmh 30.07 in1018.3 mb 0.00 in0.0 mm 0.00 in0.0 mm 0.00 in0.0 mm
02:20 PM 64.5°F18.1°C 36.0°F2.2°C 35% 5.9 mph NNW9.5 kmh NNW 17.0 mph27.4 kmh 30.06 in1017.9 mb 0.00 in0.0 mm 0.00 in0.0 mm 0.00 in0.0 mm
02:25 PM 64.7°F18.2°C 38.3°F3.5°C 38% 5.4 mph NW8.7 kmh NW 17.0 mph27.4 kmh 30.07 in1018.3 mb 0.00 in0.0 mm 0.00 in0.0 mm 0.00 in0.0 mm
02:30 PM 64.7°F18.2°C 37.6°F3.1°C 37% 7.3 mph NW11.7 kmh NW 17.0 mph27.4 kmh 30.06 in1017.9 mb 0.00 in0.0 mm 0.00 in0.0 mm 0.00 in0.0 mm
02:35 PM 65.0°F18.3°C 38.6°F3.7°C 38% 6.0 mph NW9.7 kmh NW 17.0 mph27.4 kmh 30.07 in1018.3 mb 0.00 in0.0 mm 0.00 in0.0 mm 0.00 in0.0 mm
02:40 PM 65.0°F18.3°C 39.3°F4.1°C 39% 3.8 mph NW6.1 kmh NW 17.0 mph27.4 kmh 30.06 in1017.9 mb 0.00 in0.0 mm 0.00 in0.0 mm 0.00 in0.0 mm
02:45 PM 65.3°F18.5°C 39.5°F4.2°C 39% 3.9 mph WNW6.3 kmh WNW 13.0 mph20.9 kmh 30.06 in1017.9 mb 0.00 in0.0 mm 0.00 in0.0 mm 0.00 in0.0 mm
02:50 PM 65.6°F18.7°C 39.1°F3.9°C 38% 3.9 mph W6.3 kmh W 13.0 mph20.9 kmh 30.06 in1017.9 mb 0.00 in0.0 mm 0.00 in0.0 mm 0.00 in0.0 mm
02:55 PM 65.9°F18.8°C 39.4°F4.1°C 38% 4.2 mph NW6.8 kmh NW 13.0 mph20.9 kmh 30.06 in1017.9 mb 0.00 in0.0 mm 0.00 in0.0 mm 0.00 in0.0 mm
03:00 PM 65.1°F18.4°C 37.3°F2.9°C 36% 6.5 mph WNW10.5 kmh WNW 18.0 mph29.0 kmh 30.06 in1017.9 mb 0.00 in0.0 mm 0.00 in0.0 mm 0.00 in0.0 mm
03:05 PM 65.2°F18.4°C 38.8°F3.8°C 38% 5.8 mph WNW9.3 kmh WNW 18.0 mph29.0 kmh 30.06 in1017.9 mb 0.00 in0.0 mm 0.00 in0.0 mm 0.00 in0.0 mm
03:10 PM 65.1°F18.4°C 38.0°F3.3°C 37% 6.5 mph NW10.5 kmh NW 18.0 mph29.0 kmh 30.06 in1017.9 mb 0.00 in0.0 mm 0.00 in0.0 mm 0.00 in0.0 mm
03:15 PM 65.5°F18.6°C 39.0°F3.9°C 38% 4.1 mph NNW6.6 kmh NNW 18.0 mph29.0 kmh 30.06 in1017.9 mb 0.00 in0.0 mm 0.00 in0.0 mm 0.00 in0.0 mm
03:20 PM 65.7°F18.7°C 39.9°F4.4°C 39% 4.7 mph NW7.6 kmh NW 18.0 mph29.0 kmh 30.06 in1017.9 mb 0.00 in0.0 mm 0.00 in0.0 mm 0.00 in0.0 mm
03:25 PM 66.0°F18.9°C 38.8°F3.8°C 37% 5.9 mph WNW9.5 kmh WNW 15.0 mph24.1 kmh 30.06 in1017.9 mb 0.00 in0.0 mm 0.00 in0.0 mm 0.00 in0.0 mm
03:30 PM 66.0°F18.9°C 38.8°F3.8°C 37% 3.6 mph NW5.8 kmh NW 14.0 mph22.5 kmh 30.06 in1017.9 mb 0.00 in0.0 mm 0.00 in0.0 mm 0.00 in0.0 mm
03:35 PM 66.2°F19.0°C 39.0°F3.9°C 37% 5.6 mph NW9.0 kmh NW 14.0 mph22.5 kmh 30.06 in1017.9 mb 0.00 in0.0 mm 0.00 in0.0 mm 0.00 in0.0 mm
03:40 PM 66.2°F19.0°C 39.0°F3.9°C 37% 4.2 mph WNW6.8 kmh WNW 14.0 mph22.5 kmh 30.06 in1017.9 mb 0.00 in0.0 mm 0.00 in0.0 mm 0.00 in0.0 mm
03:45 PM 65.8°F18.8°C 37.9°F3.3°C 36% 7.8 mph WNW12.6 kmh WNW 14.0 mph22.5 kmh 30.06 in1017.9 mb 0.00 in0.0 mm 0.00 in0.0 mm 0.00 in0.0 mm
03:50 PM 65.3°F18.5°C 38.2°F3.4°C 37% 10.2 mph WNW16.4 kmh WNW 17.0 mph27.4 kmh 30.06 in1017.9 mb 0.00 in0.0 mm 0.00 in0.0 mm 0.00 in0.0 mm
03:55 PM 65.6°F18.7°C 40.5°F4.7°C 40% 5.0 mph NW8.0 kmh NW 17.0 mph27.4 kmh 30.06 in1017.9 mb 0.00 in0.0 mm 0.00 in0.0 mm 0.00 in0.0 mm
04:00 PM 65.7°F18.7°C 38.5°F3.6°C 37% 4.9 mph NW7.9 kmh NW 17.0 mph27.4 kmh 30.06 in1017.9 mb 0.00 in0.0 mm 0.00 in0.0 mm 0.00 in0.0 mm
04:05 PM 66.4°F19.1°C 39.9°F4.4°C 38% 5.8 mph WNW9.3 kmh WNW 17.0 mph27.4 kmh 30.06 in1017.9 mb 0.00 in0.0 mm 0.00 in0.0 mm 0.00 in0.0 mm
04:09 PM 66.0°F18.9°C 38.8°F3.8°C 37% 7.7 mph W12.4 kmh W 14.0 mph22.5 kmh 30.06 in1017.9 mb 0.00 in0.0 mm 0.00 in0.0 mm 0.00 in0.0 mm
04:14 PM 65.9°F18.8°C 39.4°F4.1°C 38% 6.6 mph W10.6 kmh W 14.0 mph22.5 kmh 30.06 in1017.9 mb 0.00 in0.0 mm 0.00 in0.0 mm 0.00 in0.0 mm
04:19 PM 66.3°F19.1°C 39.1°F3.9°C 37% 3.5 mph NNW5.6 kmh NNW 14.0 mph22.5 kmh 30.06 in1017.9 mb 0.00 in0.0 mm 0.00 in0.0 mm 0.00 in0.0 mm
04:24 PM 66.2°F19.0°C 38.3°F3.5°C 36% 8.3 mph WNW13.4 kmh WNW 14.0 mph22.5 kmh 30.07 in1018.3 mb 0.00 in0.0 mm 0.00 in0.0 mm 0.00 in0.0 mm
04:29 PM 66.5°F19.2°C 38.5°F3.6°C 36% 4.9 mph WNW7.9 kmh WNW 14.0 mph22.5 kmh 30.06 in1017.9 mb 0.00 in0.0 mm 0.00 in0.0 mm 0.00 in0.0 mm
04:34 PM 66.5°F19.2°C 38.5°F3.6°C 36% 6.3 mph NW10.1 kmh NW 15.0 mph24.1 kmh 30.07 in1018.3 mb 0.00 in0.0 mm 0.00 in0.0 mm 0.00 in0.0 mm
04:39 PM 66.3°F19.1°C 38.4°F3.6°C 36% 6.2 mph NW10.0 kmh NW 15.0 mph24.1 kmh 30.07 in1018.3 mb 0.00 in0.0 mm 0.00 in0.0 mm 0.00 in0.0 mm
04:44 PM 66.6°F19.2°C 39.3°F4.1°C 37% 2.7 mph NNW4.3 kmh NNW 15.0 mph24.1 kmh 30.07 in1018.3 mb 0.00 in0.0 mm 0.00 in0.0 mm 0.00 in0.0 mm
04:49 PM 66.6°F19.2°C 37.9°F3.3°C 35% 4.6 mph WNW7.4 kmh WNW 17.0 mph27.4 kmh 30.07 in1018.3 mb 0.00 in0.0 mm 0.00 in0.0 mm 0.00 in0.0 mm
04:54 PM 66.5°F19.2°C 38.5°F3.6°C 36% 6.6 mph WNW10.6 kmh WNW 17.0 mph27.4 kmh 30.07 in1018.3 mb 0.00 in0.0 mm 0.00 in0.0 mm 0.00 in0.0 mm
04:59 PM 66.6°F19.2°C 40.0°F4.4°C 38% 3.1 mph WNW5.0 kmh WNW 17.0 mph27.4 kmh 30.08 in1018.6 mb 0.00 in0.0 mm 0.00 in0.0 mm 0.00 in0.0 mm
05:04 PM 66.7°F19.3°C 38.7°F3.7°C 36% 6.5 mph NW10.5 kmh NW 17.0 mph27.4 kmh 30.08 in1018.6 mb 0.00 in0.0 mm 0.00 in0.0 mm 0.00 in0.0 mm
05:09 PM 66.5°F19.2°C 39.9°F4.4°C 38% 5.6 mph NW9.0 kmh NW 15.0 mph24.1 kmh 30.08 in1018.6 mb 0.00 in0.0 mm 0.00 in0.0 mm 0.00 in0.0 mm
05:14 PM 66.6°F19.2°C 38.6°F3.7°C 36% 4.3 mph WNW6.9 kmh WNW 15.0 mph24.1 kmh 30.08 in1018.6 mb 0.00 in0.0 mm 0.00 in0.0 mm 0.00 in0.0 mm
05:19 PM 66.3°F19.1°C 38.4°F3.6°C 36% 6.5 mph WNW10.5 kmh WNW 15.0 mph24.1 kmh 30.08 in1018.6 mb 0.00 in0.0 mm 0.00 in0.0 mm 0.00 in0.0 mm
05:24 PM 66.4°F19.1°C 38.4°F3.6°C 36% 5.3 mph NW8.5 kmh NW 13.0 mph20.9 kmh 30.08 in1018.6 mb 0.00 in0.0 mm 0.00 in0.0 mm 0.00 in0.0 mm
05:29 PM 66.5°F19.2°C 38.5°F3.6°C 36% 5.4 mph WNW8.7 kmh WNW 13.0 mph20.9 kmh 30.08 in1018.6 mb 0.00 in0.0 mm 0.00 in0.0 mm 0.00 in0.0 mm
05:34 PM 66.5°F19.2°C 39.2°F4.0°C 37% 2.8 mph WNW4.5 kmh WNW 13.0 mph20.9 kmh 30.08 in1018.6 mb 0.00 in0.0 mm 0.00 in0.0 mm 0.00 in0.0 mm
05:39 PM 66.5°F19.2°C 38.5°F3.6°C 36% 3.7 mph WNW6.0 kmh WNW 13.0 mph20.9 kmh 30.08 in1018.6 mb 0.00 in0.0 mm 0.00 in0.0 mm 0.00 in0.0 mm
05:44 PM 66.3°F19.1°C 38.4°F3.6°C 36% 5.5 mph NW8.9 kmh NW 11.0 mph17.7 kmh 30.08 in1018.6 mb 0.00 in0.0 mm 0.00 in0.0 mm 0.00 in0.0 mm
05:49 PM 66.4°F19.1°C 39.2°F4.0°C 37% 4.7 mph WNW7.6 kmh WNW 11.0 mph17.7 kmh 30.08 in1018.6 mb 0.00 in0.0 mm 0.00 in0.0 mm 0.00 in0.0 mm
05:54 PM 66.4°F19.1°C 39.2°F4.0°C 37% 1.6 mph NW2.6 kmh NW 11.0 mph17.7 kmh 30.08 in1018.6 mb 0.00 in0.0 mm 0.00 in0.0 mm 0.00 in0.0 mm
05:59 PM 66.5°F19.2°C 39.2°F4.0°C 37% 4.0 mph NW6.4 kmh NW 11.0 mph17.7 kmh 30.08 in1018.6 mb 0.00 in0.0 mm 0.00 in0.0 mm 0.00 in0.0 mm
06:04 PM 66.4°F19.1°C 39.2°F4.0°C 37% 2.3 mph NW3.7 kmh NW 11.0 mph17.7 kmh 30.08 in1018.6 mb 0.00 in0.0 mm 0.00 in0.0 mm 0.00 in0.0 mm
06:09 PM 66.4°F19.1°C 39.2°F4.0°C 37% 3.7 mph WNW6.0 kmh WNW 10.0 mph16.1 kmh 30.08 in1018.6 mb 0.00 in0.0 mm 0.00 in0.0 mm 0.00 in0.0 mm
06:14 PM 66.0°F18.9°C 38.1°F3.4°C 36% 5.2 mph WNW8.4 kmh WNW 12.0 mph19.3 kmh 30.08 in1018.6 mb 0.00 in0.0 mm 0.00 in0.0 mm 0.00 in0.0 mm
06:19 PM 66.0°F18.9°C 38.8°F3.8°C 37% 4.6 mph NW7.4 kmh NW 12.0 mph19.3 kmh 30.08 in1018.6 mb 0.00 in0.0 mm 0.00 in0.0 mm 0.00 in0.0 mm
06:24 PM 65.9°F18.8°C 39.4°F4.1°C 38% 2.9 mph WNW4.7 kmh WNW 12.0 mph19.3 kmh 30.09 in1019.0 mb 0.00 in0.0 mm 0.00 in0.0 mm 0.00 in0.0 mm
06:29 PM 65.9°F18.8°C 38.7°F3.7°C 37% 4.2 mph NW6.8 kmh NW 9.0 mph14.5 kmh 30.08 in1018.6 mb 0.00 in0.0 mm 0.00 in0.0 mm 0.00 in0.0 mm
06:34 PM 65.7°F18.7°C 39.2°F4.0°C 38% 1.9 mph WNW3.1 kmh WNW 8.0 mph12.9 kmh 30.09 in1019.0 mb 0.00 in0.0 mm 0.00 in0.0 mm 0.00 in0.0 mm
06:39 PM 65.4°F18.6°C 39.0°F3.9°C 38% 2.5 mph WNW4.0 kmh WNW 8.0 mph12.9 kmh 30.09 in1019.0 mb 0.00 in0.0 mm 0.00 in0.0 mm 0.00 in0.0 mm
06:44 PM 64.9°F18.3°C 39.2°F4.0°C 39% 2.7 mph WNW4.3 kmh WNW 8.0 mph12.9 kmh 30.09 in1019.0 mb 0.00 in0.0 mm 0.00 in0.0 mm 0.00 in0.0 mm
06:49 PM 64.5°F18.1°C 39.5°F4.2°C 40% 2.6 mph W4.2 kmh W 8.0 mph12.9 kmh 30.09 in1019.0 mb 0.00 in0.0 mm 0.00 in0.0 mm 0.00 in0.0 mm
06:54 PM 63.9°F17.7°C 39.6°F4.2°C 41% 2.1 mph WNW3.4 kmh WNW 8.0 mph12.9 kmh 30.09 in1019.0 mb 0.00 in0.0 mm 0.00 in0.0 mm 0.00 in0.0 mm
06:59 PM 63.5°F17.5°C 39.2°F4.0°C 41% 2.9 mph W4.7 kmh W 8.0 mph12.9 kmh 30.09 in1019.0 mb 0.00 in0.0 mm 0.00 in0.0 mm 0.00 in0.0 mm
07:04 PM 63.2°F17.3°C 39.0°F3.9°C 41% 2.4 mph WNW3.9 kmh WNW 8.0 mph12.9 kmh 30.09 in1019.0 mb 0.00 in0.0 mm 0.00 in0.0 mm 0.00 in0.0 mm
07:09 PM 62.8°F17.1°C 39.4°F4.1°C 42% 1.6 mph WNW2.6 kmh WNW 8.0 mph12.9 kmh 30.10 in1019.3 mb 0.00 in0.0 mm 0.00 in0.0 mm 0.00 in0.0 mm
07:14 PM 62.6°F17.0°C 39.2°F4.0°C 42% 2.5 mph WNW4.0 kmh WNW 8.0 mph12.9 kmh 30.10 in1019.3 mb 0.00 in0.0 mm 0.00 in0.0 mm 0.00 in0.0 mm
07:19 PM 62.1°F16.7°C 39.8°F4.3°C 44% 1.9 mph W3.1 kmh W 5.0 mph8.0 kmh 30.10 in1019.3 mb 0.00 in0.0 mm 0.00 in0.0 mm 0.00 in0.0 mm
07:24 PM 61.8°F16.6°C 39.6°F4.2°C 44% 2.0 mph WNW3.2 kmh WNW 5.0 mph8.0 kmh 30.10 in1019.3 mb 0.00 in0.0 mm 0.00 in0.0 mm 0.00 in0.0 mm
07:29 PM 61.7°F16.5°C 39.5°F4.2°C 44% 2.1 mph WNW3.4 kmh WNW 5.0 mph8.0 kmh 30.10 in1019.3 mb 0.00 in0.0 mm 0.00 in0.0 mm 0.00 in0.0 mm
07:34 PM 61.4°F16.3°C 39.2°F4.0°C 44% 2.8 mph WNW4.5 kmh WNW 6.0 mph9.7 kmh 30.10 in1019.3 mb 0.00 in0.0 mm 0.00 in0.0 mm 0.00 in0.0 mm
07:39 PM 61.2°F16.2°C 39.6°F4.2°C 45% 2.3 mph WNW3.7 kmh WNW 6.0 mph9.7 kmh 30.11 in1019.6 mb 0.00 in0.0 mm 0.00 in0.0 mm 0.00 in0.0 mm
07:44 PM 61.0°F16.1°C 39.4°F4.1°C 45% 1.9 mph WNW3.1 kmh WNW 6.0 mph9.7 kmh 30.11 in1019.6 mb 0.00 in0.0 mm 0.00 in0.0 mm 0.00 in0.0 mm
07:49 PM 60.7°F15.9°C 39.7°F4.3°C 46% 1.2 mph W1.9 kmh W 6.0 mph9.7 kmh 30.11 in1019.6 mb 0.00 in0.0 mm 0.00 in0.0 mm 0.00 in0.0 mm
07:54 PM 60.4°F15.8°C 39.5°F4.2°C 46% 2.4 mph W3.9 kmh W 6.0 mph9.7 kmh 30.11 in1019.6 mb 0.00 in0.0 mm 0.00 in0.0 mm 0.00 in0.0 mm
07:59 PM 60.3°F15.7°C 39.4°F4.1°C 46% 1.8 mph W2.9 kmh W 6.0 mph9.7 kmh 30.11 in1019.6 mb 0.00 in0.0 mm 0.00 in0.0 mm 0.00 in0.0 mm
08:04 PM 60.1°F15.6°C 39.8°F4.3°C 47% 1.8 mph NW2.9 kmh NW 6.0 mph9.7 kmh 30.12 in1020.0 mb 0.00 in0.0 mm 0.00 in0.0 mm 0.00 in0.0 mm
08:09 PM 59.8°F15.4°C 40.0°F4.4°C 48% 1.4 mph NW2.3 kmh NW 6.0 mph9.7 kmh 30.12 in1020.0 mb 0.00 in0.0 mm 0.00 in0.0 mm 0.00 in0.0 mm
08:14 PM 59.5°F15.3°C 39.8°F4.3°C 48% 1.9 mph WNW3.1 kmh WNW 4.0 mph6.4 kmh 30.12 in1020.0 mb 0.00 in0.0 mm 0.00 in0.0 mm 0.00 in0.0 mm
08:19 PM 59.5°F15.3°C 39.8°F4.3°C 48% 2.2 mph WNW3.5 kmh WNW 7.0 mph11.3 kmh 30.13 in1020.3 mb 0.00 in0.0 mm 0.00 in0.0 mm 0.00 in0.0 mm
08:24 PM 59.4°F15.2°C 39.7°F4.3°C 48% 1.6 mph WNW2.6 kmh WNW 7.0 mph11.3 kmh 30.13 in1020.3 mb 0.00 in0.0 mm 0.00 in0.0 mm 0.00 in0.0 mm
08:29 PM 59.3°F15.2°C 39.6°F4.2°C 48% 1.2 mph WNW1.9 kmh WNW 7.0 mph11.3 kmh 30.13 in1020.3 mb 0.00 in0.0 mm 0.00 in0.0 mm 0.00 in0.0 mm
08:34 PM 59.0°F15.0°C 39.8°F4.3°C 49% 1.6 mph WSW2.6 kmh WSW 7.0 mph11.3 kmh 30.13 in1020.3 mb 0.00 in0.0 mm 0.00 in0.0 mm 0.00 in0.0 mm
08:39 PM 58.6°F14.8°C 40.0°F4.4°C 50% 1.6 mph W2.6 kmh W 5.0 mph8.0 kmh 30.14 in1020.7 mb 0.00 in0.0 mm 0.00 in0.0 mm 0.00 in0.0 mm
08:44 PM 58.4°F14.7°C 39.8°F4.3°C 50% 2.2 mph W3.5 kmh W 6.0 mph9.7 kmh 30.14 in1020.7 mb 0.00 in0.0 mm 0.00 in0.0 mm 0.00 in0.0 mm
08:49 PM 58.3°F14.6°C 39.7°F4.3°C 50% 1.8 mph W2.9 kmh W 6.0 mph9.7 kmh 30.14 in1020.7 mb 0.00 in0.0 mm 0.00 in0.0 mm 0.00 in0.0 mm
08:54 PM 58.1°F14.5°C 40.1°F4.5°C 51% 1.9 mph W3.1 kmh W 6.0 mph9.7 kmh 30.15 in1021.0 mb 0.00 in0.0 mm 0.00 in0.0 mm 0.00 in0.0 mm
08:59 PM 57.8°F14.3°C 39.8°F4.3°C 51% 1.3 mph W2.1 kmh W 6.0 mph9.7 kmh 30.15 in1021.0 mb 0.00 in0.0 mm 0.00 in0.0 mm 0.00 in0.0 mm
09:04 PM 57.6°F14.2°C 39.6°F4.2°C 51% 1.3 mph W2.1 kmh W 6.0 mph9.7 kmh 30.15 in1021.0 mb 0.00 in0.0 mm 0.00 in0.0 mm 0.00 in0.0 mm
09:08 PM 57.5°F14.2°C 40.0°F4.4°C 52% 1.5 mph W2.4 kmh W 6.0 mph9.7 kmh 30.15 in1021.0 mb 0.00 in0.0 mm 0.00 in0.0 mm 0.00 in0.0 mm
09:13 PM 57.5°F14.2°C 40.0°F4.4°C 52% 2.1 mph W3.4 kmh W 4.0 mph6.4 kmh 30.15 in1021.0 mb 0.00 in0.0 mm 0.00 in0.0 mm 0.00 in0.0 mm
09:18 PM 57.4°F14.1°C 39.9°F4.4°C 52% 1.8 mph WNW2.9 kmh WNW 5.0 mph8.0 kmh 30.15 in1021.0 mb 0.00 in0.0 mm 0.00 in0.0 mm 0.00 in0.0 mm
09:23 PM 57.3°F14.1°C 39.9°F4.4°C 52% 1.2 mph W1.9 kmh W 6.0 mph9.7 kmh 30.16 in1021.3 mb 0.00 in0.0 mm 0.00 in0.0 mm 0.00 in0.0 mm
09:28 PM 57.2°F14.0°C 39.8°F4.3°C 52% 2.0 mph W3.2 kmh W 6.0 mph9.7 kmh 30.16 in1021.3 mb 0.00 in0.0 mm 0.00 in0.0 mm 0.00 in0.0 mm
09:33 PM 57.1°F13.9°C 40.2°F4.6°C 53% 1.6 mph W2.6 kmh W 6.0 mph9.7 kmh 30.16 in1021.3 mb 0.00 in0.0 mm 0.00 in0.0 mm 0.00 in0.0 mm
09:38 PM 56.9°F13.8°C 40.0°F4.4°C 53% 1.8 mph W2.9 kmh W 6.0 mph9.7 kmh 30.15 in1021.0 mb 0.00 in0.0 mm 0.00 in0.0 mm 0.00 in0.0 mm
09:43 PM 56.7°F13.7°C 40.3°F4.6°C 54% 1.7 mph W2.7 kmh W 6.0 mph9.7 kmh 30.15 in1021.0 mb 0.00 in0.0 mm 0.00 in0.0 mm 0.00 in0.0 mm
09:48 PM 56.5°F13.6°C 40.1°F4.5°C 54% 1.7 mph W2.7 kmh W 4.0 mph6.4 kmh 30.16 in1021.3 mb 0.00 in0.0 mm 0.00 in0.0 mm 0.00 in0.0 mm
09:53 PM 56.3°F13.5°C 40.4°F4.7°C 55% 1.7 mph WNW2.7 kmh WNW 4.0 mph6.4 kmh 30.16 in1021.3 mb 0.00 in0.0 mm 0.00 in0.0 mm 0.00 in0.0 mm
09:58 PM 56.2°F13.4°C 40.2°F4.6°C 55% 1.7 mph WNW2.7 kmh WNW 4.0 mph6.4 kmh 30.16 in1021.3 mb 0.00 in0.0 mm 0.00 in0.0 mm 0.00 in0.0 mm
10:03 PM 56.4°F13.6°C 40.0°F4.4°C 54% 1.8 mph W2.9 kmh W 6.0 mph9.7 kmh 30.16 in1021.3 mb 0.00 in0.0 mm 0.00 in0.0 mm 0.00 in0.0 mm
10:08 PM 56.5°F13.6°C 40.0°F4.4°C 54% 2.1 mph WNW3.4 kmh WNW 9.0 mph14.5 kmh 30.15 in1021.0 mb 0.00 in0.0 mm 0.00 in0.0 mm 0.00 in0.0 mm
10:13 PM 56.5°F13.6°C 40.0°F4.4°C 54% 2.5 mph WNW4.0 kmh WNW 9.0 mph14.5 kmh 30.16 in1021.3 mb 0.00 in0.0 mm 0.00 in0.0 mm 0.00 in0.0 mm
10:18 PM 56.4°F13.6°C 40.0°F4.4°C 54% 2.6 mph WNW4.2 kmh WNW 9.0 mph14.5 kmh 30.16 in1021.3 mb 0.00 in0.0 mm 0.00 in0.0 mm 0.00 in0.0 mm
10:23 PM 56.4°F13.6°C 40.0°F4.4°C 54% 2.1 mph WNW3.4 kmh WNW 9.0 mph14.5 kmh 30.15 in1021.0 mb 0.00 in0.0 mm 0.00 in0.0 mm 0.00 in0.0 mm
10:28 PM 56.5°F13.6°C 40.1°F4.5°C 54% 2.8 mph WNW4.5 kmh WNW 7.0 mph11.3 kmh 30.16 in1021.3 mb 0.00 in0.0 mm 0.00 in0.0 mm 0.00 in0.0 mm
10:33 PM 56.4°F13.6°C 40.5°F4.7°C 55% 3.8 mph NW6.1 kmh NW 7.0 mph11.3 kmh 30.16 in1021.3 mb 0.00 in0.0 mm 0.00 in0.0 mm 0.00 in0.0 mm
10:38 PM 56.2°F13.4°C 40.3°F4.6°C 55% 2.8 mph WNW4.5 kmh WNW 7.0 mph11.3 kmh 30.16 in1021.3 mb 0.00 in0.0 mm 0.00 in0.0 mm 0.00 in0.0 mm
10:43 PM 56.1°F13.4°C 40.2°F4.6°C 55% 2.1 mph NW3.4 kmh NW 7.0 mph11.3 kmh 30.16 in1021.3 mb 0.00 in0.0 mm 0.00 in0.0 mm 0.00 in0.0 mm
10:48 PM 56.1°F13.4°C 40.2°F4.6°C 55% 3.2 mph NW5.1 kmh NW 7.0 mph11.3 kmh 30.16 in1021.3 mb 0.00 in0.0 mm 0.00 in0.0 mm 0.00 in0.0 mm
10:53 PM 56.1°F13.4°C 40.2°F4.6°C 55% 4.0 mph WNW6.4 kmh WNW 9.0 mph14.5 kmh 30.16 in1021.3 mb 0.00 in0.0 mm 0.00 in0.0 mm 0.00 in0.0 mm
10:58 PM 56.0°F13.3°C 40.6°F4.8°C 56% 2.8 mph NW4.5 kmh NW 9.0 mph14.5 kmh 30.16 in1021.3 mb 0.00 in0.0 mm 0.00 in0.0 mm 0.00 in0.0 mm
11:03 PM 55.9°F13.3°C 40.5°F4.7°C 56% 2.1 mph NW3.4 kmh NW 9.0 mph14.5 kmh 30.16 in1021.3 mb 0.00 in0.0 mm 0.00 in0.0 mm 0.00 in0.0 mm
11:08 PM 55.7°F13.2°C 40.3°F4.6°C 56% 2.1 mph NW3.4 kmh NW 9.0 mph14.5 kmh 30.16 in1021.3 mb 0.00 in0.0 mm 0.00 in0.0 mm 0.00 in0.0 mm
11:13 PM 55.5°F13.1°C 40.5°F4.7°C 57% 1.3 mph WNW2.1 kmh WNW 7.0 mph11.3 kmh 30.16 in1021.3 mb 0.00 in0.0 mm 0.00 in0.0 mm 0.00 in0.0 mm
11:18 PM 55.3°F12.9°C 40.3°F4.6°C 57% 1.8 mph NW2.9 kmh NW 6.0 mph9.7 kmh 30.15 in1021.0 mb 0.00 in0.0 mm 0.00 in0.0 mm 0.00 in0.0 mm
11:23 PM 55.3°F12.9°C 40.8°F4.9°C 58% 1.6 mph NW2.6 kmh NW 5.0 mph8.0 kmh 30.16 in1021.3 mb 0.00 in0.0 mm 0.00 in0.0 mm 0.00 in0.0 mm
11:28 PM 55.1°F12.8°C 40.7°F4.8°C 58% 1.5 mph NNW2.4 kmh NNW 5.0 mph8.0 kmh 30.16 in1021.3 mb 0.00 in0.0 mm 0.00 in0.0 mm 0.00 in0.0 mm
11:33 PM 55.0°F12.8°C 40.6°F4.8°C 58% 1.0 mph WNW1.6 kmh WNW 5.0 mph8.0 kmh 30.17 in1021.7 mb 0.00 in0.0 mm 0.00 in0.0 mm 0.00 in0.0 mm
11:38 PM 54.7°F12.6°C 40.7°F4.8°C 59% 1.9 mph WNW3.1 kmh WNW 5.0 mph8.0 kmh 30.17 in1021.7 mb 0.00 in0.0 mm 0.00 in0.0 mm 0.00 in0.0 mm
11:43 PM 54.6°F12.6°C 40.7°F4.8°C 59% 2.7 mph WNW4.3 kmh WNW 5.0 mph8.0 kmh 30.17 in1021.7 mb 0.00 in0.0 mm 0.00 in0.0 mm 0.00 in0.0 mm
11:49 PM 54.3°F12.4°C 40.8°F4.9°C 60% 1.8 mph WNW2.9 kmh WNW 5.0 mph8.0 kmh 30.17 in1021.7 mb 0.00 in0.0 mm 0.00 in0.0 mm 0.00 in0.0 mm
11:53 PM 54.0°F12.2°C 41.0°F5.0°C 61% 2.2 mph NW3.5 kmh NW 5.0 mph8.0 kmh 30.17 in1021.7 mb 0.00 in0.0 mm 0.00 in0.0 mm 0.00 in0.0 mm
11:59 PM 53.8°F12.1°C 41.2°F5.1°C 62% 2.2 mph NW3.5 kmh NW 5.0 mph8.0 kmh 30.17 in1021.7 mb 0.00 in0.0 mm 0.00 in0.0 mm 0.00 in0.0 mm